createdAt,value
2023-08-17T00:00:22.241Z,18.43
2023-08-17T00:01:26.599Z,18.42
2023-08-17T00:02:31.061Z,18.40
2023-08-17T00:03:35.579Z,18.39
2023-08-17T00:04:39.860Z,18.38
2023-08-17T00:05:44.336Z,18.37
2023-08-17T00:06:48.695Z,18.37
2023-08-17T00:07:53.157Z,18.37
2023-08-17T00:08:57.500Z,18.38
2023-08-17T00:10:01.844Z,18.39
2023-08-17T00:11:06.219Z,18.41
2023-08-17T00:12:13.772Z,18.42
2023-08-17T00:13:17.202Z,18.44
2023-08-17T00:14:21.669Z,18.44
2023-08-17T00:15:26.063Z,18.44
2023-08-17T00:16:30.525Z,18.42
2023-08-17T00:17:34.802Z,18.41
2023-08-17T00:18:39.122Z,18.42
2023-08-17T00:19:43.549Z,18.43
2023-08-17T00:20:47.933Z,18.45
2023-08-17T00:21:52.284Z,18.48
2023-08-17T00:22:56.858Z,18.49
2023-08-17T00:24:01.227Z,18.51
2023-08-17T00:25:05.641Z,18.52
2023-08-17T00:26:10.136Z,18.53
2023-08-17T00:27:14.444Z,18.55
2023-08-17T00:28:18.889Z,18.57
2023-08-17T00:29:23.208Z,18.58
2023-08-17T00:30:27.658Z,18.60
2023-08-17T00:31:32.074Z,18.61
2023-08-17T00:32:36.471Z,18.60
2023-08-17T00:33:40.902Z,18.60
2023-08-17T00:34:45.332Z,18.59
2023-08-17T00:35:49.789Z,18.57
2023-08-17T00:36:54.184Z,18.56
2023-08-17T00:37:58.619Z,18.54
2023-08-17T00:39:02.946Z,18.52
2023-08-17T00:40:13.272Z,18.52
2023-08-17T00:41:16.315Z,18.50
2023-08-17T00:42:20.790Z,18.49
2023-08-17T00:43:25.123Z,18.47
2023-08-17T00:44:29.453Z,18.45
2023-08-17T00:45:33.807Z,18.41
2023-08-17T00:46:38.174Z,18.37
2023-08-17T00:47:42.676Z,18.34
2023-08-17T00:48:46.954Z,18.32
2023-08-17T00:49:51.300Z,18.31
2023-08-17T00:50:55.772Z,18.30
2023-08-17T00:52:00.125Z,18.29
2023-08-17T00:53:04.442Z,18.27
2023-08-17T00:54:08.955Z,18.24
2023-08-17T00:55:13.452Z,18.20
2023-08-17T00:56:17.663Z,18.15
2023-08-17T00:57:22.062Z,18.12
2023-08-17T00:58:29.492Z,18.10
2023-08-17T00:59:36.792Z,18.09
2023-08-17T01:00:37.394Z,18.09
2023-08-17T01:01:41.877Z,18.10
2023-08-17T01:02:46.113Z,18.11
2023-08-17T01:03:50.592Z,18.12
2023-08-17T01:04:54.898Z,18.14
2023-08-17T01:05:59.235Z,18.16
2023-08-17T01:07:03.680Z,18.17
2023-08-17T01:08:22.042Z,18.18
2023-08-17T01:09:25.329Z,18.21
2023-08-17T01:10:29.740Z,18.22
2023-08-17T01:11:34.079Z,18.24
2023-08-17T01:12:52.545Z,18.25
2023-08-17T01:13:55.928Z,18.26
2023-08-17T01:15:00.161Z,18.29
2023-08-17T01:16:04.620Z,18.30
2023-08-17T01:17:08.961Z,18.30
2023-08-17T01:18:13.398Z,18.31
2023-08-17T01:19:17.807Z,18.31
2023-08-17T01:20:22.124Z,18.31
2023-08-17T01:21:26.582Z,18.29
2023-08-17T01:22:33.908Z,18.29
2023-08-17T01:23:37.478Z,18.29
2023-08-17T01:24:41.843Z,18.29
2023-08-17T01:25:46.413Z,18.29
2023-08-17T01:26:50.687Z,18.29
2023-08-17T01:27:55.146Z,18.29
2023-08-17T01:28:59.482Z,18.29
2023-08-17T01:31:31.213Z,18.28
2023-08-17T01:32:35.512Z,18.28
2023-08-17T01:33:39.926Z,18.28
2023-08-17T01:34:44.274Z,18.28
2023-08-17T01:35:48.636Z,18.29
2023-08-17T01:36:53.006Z,18.29
2023-08-17T01:37:57.381Z,18.28
2023-08-17T01:39:01.833Z,18.27
2023-08-17T01:40:06.309Z,18.26
2023-08-17T01:41:10.741Z,18.23
2023-08-17T01:42:15.186Z,18.21
2023-08-17T01:43:19.547Z,18.18
2023-08-17T01:44:24.015Z,18.15
2023-08-17T01:45:28.393Z,18.13
2023-08-17T01:46:32.756Z,18.11
2023-08-17T01:47:37.286Z,18.09
2023-08-17T01:48:41.572Z,18.07
2023-08-17T01:49:46.016Z,18.06
2023-08-17T01:50:50.379Z,18.03
2023-08-17T01:51:54.810Z,18.01
2023-08-17T01:52:59.154Z,17.99
2023-08-17T01:54:03.585Z,17.98
2023-08-17T01:55:19.999Z,17.97
2023-08-17T01:56:22.662Z,17.97
2023-08-17T01:57:41.045Z,17.97
2023-08-17T01:58:44.252Z,17.98
2023-08-17T01:59:48.709Z,17.99
2023-08-17T02:00:53.182Z,18.00
2023-08-17T02:01:57.510Z,17.99
2023-08-17T02:03:01.868Z,17.98
2023-08-17T02:04:12.262Z,17.97
2023-08-17T02:05:15.235Z,17.96
2023-08-17T02:06:19.573Z,17.96
2023-08-17T02:07:24.293Z,17.97
2023-08-17T02:08:28.320Z,17.97
2023-08-17T02:09:32.704Z,17.95
2023-08-17T02:10:37.173Z,17.93
2023-08-17T02:11:41.572Z,17.91
2023-08-17T02:12:46.023Z,17.91
2023-08-17T02:13:50.314Z,17.91
2023-08-17T02:14:57.718Z,17.92
2023-08-17T02:16:01.157Z,17.92
2023-08-17T02:17:05.595Z,17.92
2023-08-17T02:18:10.042Z,17.92
2023-08-17T02:19:14.503Z,17.92
2023-08-17T02:20:18.882Z,17.92
2023-08-17T02:21:23.246Z,17.91
2023-08-17T02:22:27.562Z,17.91
2023-08-17T02:23:32.041Z,17.90
2023-08-17T02:24:36.541Z,17.90
2023-08-17T02:25:40.945Z,17.90
2023-08-17T02:26:45.319Z,17.90
2023-08-17T02:28:03.769Z,17.90
2023-08-17T02:29:07.161Z,17.90
2023-08-17T02:30:14.464Z,17.90
2023-08-17T02:31:17.940Z,17.90
2023-08-17T02:32:22.368Z,17.90
2023-08-17T02:33:26.744Z,17.90
2023-08-17T02:34:31.182Z,17.90
2023-08-17T02:35:35.577Z,17.90
2023-08-17T02:36:40.029Z,17.91
2023-08-17T02:37:44.397Z,17.92
2023-08-17T02:38:48.718Z,17.93
2023-08-17T02:39:53.280Z,17.92
2023-08-17T02:40:57.553Z,17.92
2023-08-17T02:42:02.003Z,17.91
2023-08-17T02:43:06.374Z,17.90
2023-08-17T02:44:10.819Z,17.88
2023-08-17T02:45:18.272Z,17.88
2023-08-17T02:46:21.826Z,17.87
2023-08-17T02:47:26.471Z,17.86
2023-08-17T02:48:32.830Z,17.86
2023-08-17T02:49:34.936Z,17.87
2023-08-17T02:50:39.283Z,17.88
2023-08-17T02:51:43.622Z,17.88
2023-08-17T02:52:48.060Z,17.89
2023-08-17T02:53:52.419Z,17.89
2023-08-17T02:54:56.894Z,17.90
2023-08-17T02:56:01.333Z,17.91
2023-08-17T02:57:05.589Z,17.92
2023-08-17T02:58:10.079Z,17.92
2023-08-17T02:59:14.381Z,17.93
2023-08-17T03:00:18.830Z,17.94
2023-08-17T03:01:23.336Z,17.94
2023-08-17T03:02:27.754Z,17.93
2023-08-17T03:03:32.098Z,17.93
2023-08-17T03:04:36.485Z,17.92
2023-08-17T03:05:40.853Z,17.91
2023-08-17T03:06:45.175Z,17.91
2023-08-17T03:07:49.529Z,17.91
2023-08-17T03:08:53.913Z,17.91
2023-08-17T03:09:58.256Z,17.90
2023-08-17T03:11:02.738Z,17.89
2023-08-17T03:12:07.142Z,17.89
2023-08-17T03:13:11.465Z,17.89
2023-08-17T03:14:15.918Z,17.88
2023-08-17T03:15:20.387Z,17.88
2023-08-17T03:16:24.794Z,17.88
2023-08-17T03:17:29.389Z,17.89
2023-08-17T03:18:33.470Z,17.89
2023-08-17T03:19:37.882Z,17.89
2023-08-17T03:20:42.265Z,17.89
2023-08-17T03:21:46.756Z,17.88
2023-08-17T03:22:51.046Z,17.87
2023-08-17T03:23:55.369Z,17.87
2023-08-17T03:24:59.881Z,17.87
2023-08-17T03:26:04.341Z,17.84
2023-08-17T03:27:08.724Z,17.83
2023-08-17T03:28:13.046Z,17.82
2023-08-17T03:29:23.452Z,17.82
2023-08-17T03:30:26.518Z,17.81
2023-08-17T03:31:31.012Z,17.80
2023-08-17T03:32:35.437Z,17.79
2023-08-17T03:33:39.759Z,17.78
2023-08-17T03:34:44.106Z,17.77
2023-08-17T03:35:48.613Z,17.76
2023-08-17T03:36:52.881Z,17.75
2023-08-17T03:37:57.419Z,17.74
2023-08-17T03:39:15.738Z,17.72
2023-08-17T03:40:18.754Z,17.72
2023-08-17T03:41:23.112Z,17.71
2023-08-17T03:42:27.368Z,17.70
2023-08-17T03:43:31.753Z,17.70
2023-08-17T03:44:36.210Z,17.70
2023-08-17T03:45:40.589Z,17.70
2023-08-17T03:46:44.981Z,17.70
2023-08-17T03:47:49.497Z,17.69
2023-08-17T03:48:53.803Z,17.70
2023-08-17T03:49:58.279Z,17.70
2023-08-17T03:51:02.659Z,17.70
2023-08-17T03:52:07.003Z,17.71
2023-08-17T03:53:11.381Z,17.71
2023-08-17T03:54:15.786Z,17.71
2023-08-17T03:55:20.113Z,17.70
2023-08-17T03:56:24.455Z,17.70
2023-08-17T03:57:29.029Z,17.70
2023-08-17T03:58:33.307Z,17.70
2023-08-17T03:59:37.663Z,17.69
2023-08-17T04:00:42.043Z,17.69
2023-08-17T04:01:46.578Z,17.69
2023-08-17T04:03:04.983Z,17.69
2023-08-17T04:04:08.103Z,17.71
2023-08-17T04:05:12.360Z,17.72
2023-08-17T04:06:16.744Z,17.73
2023-08-17T04:07:21.098Z,17.74
2023-08-17T04:08:25.641Z,17.74
2023-08-17T04:09:29.996Z,17.75
2023-08-17T04:10:34.374Z,17.76
2023-08-17T04:11:38.913Z,17.77
2023-08-17T04:12:43.201Z,17.78
2023-08-17T04:13:47.700Z,17.80
2023-08-17T04:14:52.020Z,17.83
2023-08-17T04:15:56.456Z,17.86
2023-08-17T04:17:00.968Z,17.88
2023-08-17T04:18:05.302Z,17.90
2023-08-17T04:19:09.829Z,17.92
2023-08-17T04:20:14.066Z,17.95
2023-08-17T04:21:18.528Z,17.97
2023-08-17T04:22:23.021Z,17.99
2023-08-17T04:23:27.286Z,18.01
2023-08-17T04:24:31.665Z,18.03
2023-08-17T04:25:36.023Z,18.05
2023-08-17T04:26:40.397Z,18.08
2023-08-17T04:27:47.829Z,18.10
2023-08-17T04:28:51.340Z,18.13
2023-08-17T04:29:55.814Z,18.15
2023-08-17T04:31:00.265Z,18.17
2023-08-17T04:32:04.695Z,18.20
2023-08-17T04:33:09.157Z,18.23
2023-08-17T04:34:13.559Z,18.25
2023-08-17T04:35:17.883Z,18.27
2023-08-17T04:36:22.296Z,18.30
2023-08-17T04:37:26.814Z,18.32
2023-08-17T04:38:31.069Z,18.35
2023-08-17T04:39:49.573Z,18.38
2023-08-17T04:40:52.860Z,18.41
2023-08-17T04:41:57.127Z,18.44
2023-08-17T04:43:01.580Z,18.46
2023-08-17T04:44:05.994Z,18.49
2023-08-17T04:45:10.529Z,18.51
2023-08-17T04:46:14.939Z,18.54
2023-08-17T04:47:19.242Z,18.56
2023-08-17T04:48:23.656Z,18.57
2023-08-17T04:49:28.172Z,18.58
2023-08-17T04:50:32.504Z,18.60
2023-08-17T04:51:36.836Z,18.62
2023-08-17T04:52:41.306Z,18.64
2023-08-17T04:53:45.834Z,18.66
2023-08-17T04:54:50.072Z,18.67
2023-08-17T04:55:54.511Z,18.68
2023-08-17T04:56:58.914Z,18.71
2023-08-17T04:58:03.273Z,18.72
2023-08-17T04:59:07.597Z,18.73
2023-08-17T05:00:12.114Z,18.75
2023-08-17T05:01:16.624Z,18.77
2023-08-17T05:02:21.003Z,18.78
2023-08-17T05:04:29.785Z,18.81
2023-08-17T05:05:40.389Z,18.82
2023-08-17T05:06:43.369Z,18.83
2023-08-17T05:07:47.853Z,18.84
2023-08-17T05:08:52.318Z,18.84
2023-08-17T05:09:56.677Z,18.84
2023-08-17T05:11:01.023Z,18.84
2023-08-17T05:12:11.490Z,18.84
2023-08-17T05:13:14.483Z,18.84
2023-08-17T05:14:18.852Z,18.84
2023-08-17T05:15:23.331Z,18.85
2023-08-17T05:16:27.686Z,18.86
2023-08-17T05:17:32.042Z,18.86
2023-08-17T05:18:36.447Z,18.87
2023-08-17T05:19:40.800Z,18.88
2023-08-17T05:20:45.284Z,18.88
2023-08-17T05:21:49.597Z,18.88
2023-08-17T05:22:54.086Z,18.89
2023-08-17T05:23:58.420Z,18.89
2023-08-17T05:25:02.819Z,18.89
2023-08-17T05:26:07.141Z,18.90
2023-08-17T05:27:11.641Z,18.90
2023-08-17T05:28:15.995Z,18.91
2023-08-17T05:29:20.310Z,18.92
2023-08-17T05:30:24.806Z,18.94
2023-08-17T05:31:29.256Z,18.95
2023-08-17T05:32:39.700Z,18.96
2023-08-17T05:33:42.793Z,18.97
2023-08-17T05:34:47.086Z,18.99
2023-08-17T05:35:54.486Z,19.00
2023-08-17T05:36:57.962Z,19.00
2023-08-17T05:38:02.291Z,19.01
2023-08-17T05:39:06.691Z,19.01
2023-08-17T05:40:11.129Z,19.02
2023-08-17T05:41:15.510Z,19.03
2023-08-17T05:42:20.003Z,19.03
2023-08-17T05:43:24.443Z,19.03
2023-08-17T05:44:28.882Z,19.04
2023-08-17T05:45:33.254Z,19.04
2023-08-17T05:46:37.692Z,19.03
2023-08-17T05:47:48.170Z,19.04
2023-08-17T05:48:51.215Z,19.05
2023-08-17T05:49:55.535Z,19.07
2023-08-17T05:50:59.920Z,19.08
2023-08-17T05:52:04.430Z,19.10
2023-08-17T05:53:08.808Z,19.13
2023-08-17T05:54:13.175Z,19.14
2023-08-17T05:55:17.509Z,19.16
2023-08-17T05:56:21.940Z,19.18
2023-08-17T05:57:26.569Z,19.19
2023-08-17T05:58:30.872Z,19.19
2023-08-17T05:59:35.296Z,19.20
2023-08-17T06:00:39.766Z,19.20
2023-08-17T06:01:44.027Z,19.20
2023-08-17T06:02:48.537Z,19.19
2023-08-17T06:03:52.855Z,19.20
2023-08-17T06:04:57.121Z,19.20
2023-08-17T06:06:01.631Z,19.20
2023-08-17T06:07:06.154Z,19.20
2023-08-17T06:08:24.668Z,19.21
2023-08-17T06:09:28.032Z,19.21
2023-08-17T06:10:32.496Z,19.23
2023-08-17T06:11:50.951Z,19.24
2023-08-17T06:12:54.245Z,19.23
2023-08-17T06:13:58.517Z,19.23
2023-08-17T06:15:03.023Z,19.24
2023-08-17T06:16:07.398Z,19.25
2023-08-17T06:17:11.859Z,19.26
2023-08-17T06:18:16.229Z,19.27
2023-08-17T06:19:20.527Z,19.29
2023-08-17T06:20:24.961Z,19.30
2023-08-17T06:21:29.304Z,19.31
2023-08-17T06:22:33.714Z,19.32
2023-08-17T06:23:38.059Z,19.33
2023-08-17T06:24:42.533Z,19.34
2023-08-17T06:25:46.939Z,19.34
2023-08-17T06:26:51.291Z,19.34
2023-08-17T06:27:55.743Z,19.34
2023-08-17T06:29:01.012Z,19.34
2023-08-17T06:30:04.540Z,19.33
2023-08-17T06:31:08.987Z,19.33
2023-08-17T06:32:13.311Z,19.33
2023-08-17T06:33:17.773Z,19.33
2023-08-17T06:34:22.250Z,19.33
2023-08-17T06:35:26.687Z,19.33
2023-08-17T06:36:31.004Z,19.34
2023-08-17T06:37:35.549Z,19.34
2023-08-17T06:38:39.863Z,19.34
2023-08-17T06:39:44.325Z,19.33
2023-08-17T06:40:48.702Z,19.32
2023-08-17T06:41:53.096Z,19.33
2023-08-17T06:42:57.535Z,19.34
2023-08-17T06:44:01.916Z,19.34
2023-08-17T06:45:06.278Z,19.34
2023-08-17T06:46:10.767Z,19.35
2023-08-17T06:47:15.148Z,19.36
2023-08-17T06:48:19.573Z,19.36
2023-08-17T06:49:23.901Z,19.36
2023-08-17T06:50:42.386Z,19.35
2023-08-17T06:51:45.719Z,19.35
2023-08-17T06:52:50.111Z,19.35
2023-08-17T06:53:54.508Z,19.36
2023-08-17T06:54:58.820Z,19.37
2023-08-17T06:56:03.377Z,19.38
2023-08-17T06:57:07.579Z,19.39
2023-08-17T06:58:11.955Z,19.39
2023-08-17T06:59:16.444Z,19.39
2023-08-17T07:00:20.746Z,19.39
2023-08-17T07:01:25.128Z,19.39
2023-08-17T07:02:42.558Z,19.38
2023-08-17T07:03:37.041Z,19.37
2023-08-17T07:04:40.658Z,19.37
2023-08-17T07:05:44.959Z,19.37
2023-08-17T07:06:49.385Z,19.37
2023-08-17T07:07:53.832Z,19.38
2023-08-17T07:08:58.213Z,19.38
2023-08-17T07:10:02.639Z,19.38
2023-08-17T07:11:07.026Z,19.39
2023-08-17T07:12:11.382Z,19.40
2023-08-17T07:13:15.726Z,19.40
2023-08-17T07:14:22.714Z,19.39
2023-08-17T07:15:24.595Z,19.37
2023-08-17T07:16:29.038Z,19.36
2023-08-17T07:17:33.466Z,19.35
2023-08-17T07:18:37.781Z,19.36
2023-08-17T07:21:00.556Z,19.37
2023-08-17T07:22:03.948Z,19.39
2023-08-17T07:23:08.293Z,19.40
2023-08-17T07:24:12.699Z,19.41
2023-08-17T07:25:17.097Z,19.42
2023-08-17T07:26:21.525Z,19.42
2023-08-17T07:27:26.106Z,19.42
2023-08-17T07:28:30.194Z,19.42
2023-08-17T07:29:34.534Z,19.43
2023-08-17T07:30:38.927Z,19.45
2023-08-17T07:31:44.425Z,19.46
2023-08-17T07:32:47.740Z,19.48
2023-08-17T07:33:52.176Z,19.50
2023-08-17T07:34:56.594Z,19.51
2023-08-17T07:36:01.019Z,19.53
2023-08-17T07:37:05.492Z,19.53
2023-08-17T07:38:10.008Z,19.54
2023-08-17T07:39:14.311Z,19.54
2023-08-17T07:40:18.740Z,19.53
2023-08-17T07:41:23.146Z,19.53
2023-08-17T07:42:27.830Z,19.54
2023-08-17T07:43:31.964Z,19.54
2023-08-17T07:44:36.411Z,19.55
2023-08-17T07:45:40.860Z,19.57
2023-08-17T07:46:45.093Z,19.57
2023-08-17T07:47:49.681Z,19.57
2023-08-17T07:48:54.117Z,19.58
2023-08-17T07:49:58.572Z,19.58
2023-08-17T07:51:02.967Z,19.58
2023-08-17T07:52:07.320Z,19.57
2023-08-17T07:53:11.797Z,19.57
2023-08-17T07:54:22.266Z,19.56
2023-08-17T07:55:25.248Z,19.56
2023-08-17T07:56:29.614Z,19.55
2023-08-17T07:57:34.014Z,19.55
2023-08-17T07:58:38.496Z,19.54
2023-08-17T07:59:42.910Z,19.53
2023-08-17T08:00:47.339Z,19.50
2023-08-17T08:01:51.798Z,19.47
2023-08-17T08:02:56.080Z,19.44
2023-08-17T08:04:00.476Z,19.40
2023-08-17T08:05:04.985Z,19.36
2023-08-17T08:06:09.564Z,19.33
2023-08-17T08:07:13.903Z,19.32
2023-08-17T08:08:18.251Z,19.29
2023-08-17T08:09:22.711Z,19.28
2023-08-17T08:10:27.222Z,19.27
2023-08-17T08:11:31.512Z,19.26
2023-08-17T08:12:35.953Z,19.23
2023-08-17T08:13:40.303Z,19.20
2023-08-17T08:14:44.652Z,19.17
2023-08-17T08:15:49.058Z,19.13
2023-08-17T08:16:53.394Z,19.10
2023-08-17T08:17:57.830Z,19.07
2023-08-17T08:19:02.121Z,19.04
2023-08-17T08:20:06.592Z,19.01
2023-08-17T08:21:10.917Z,18.99
2023-08-17T08:22:15.308Z,18.97
2023-08-17T08:23:19.665Z,18.97
2023-08-17T08:24:36.367Z,18.96
2023-08-17T08:25:28.404Z,18.95
2023-08-17T08:26:32.804Z,18.96
2023-08-17T08:27:37.892Z,18.97
2023-08-17T08:28:41.630Z,18.99
2023-08-17T08:29:46.005Z,19.03
2023-08-17T08:30:50.382Z,19.06
2023-08-17T08:31:54.845Z,19.09
2023-08-17T08:32:59.280Z,19.10
2023-08-17T08:34:03.574Z,19.10
2023-08-17T08:35:08.007Z,19.11
2023-08-17T08:36:12.413Z,19.12
2023-08-17T08:37:16.886Z,19.12
2023-08-17T08:38:27.275Z,19.11
2023-08-17T08:39:30.265Z,19.11
2023-08-17T08:40:34.723Z,19.11
2023-08-17T08:41:39.054Z,19.10
2023-08-17T08:42:43.391Z,19.10
2023-08-17T08:43:48.069Z,19.09
2023-08-17T08:44:52.268Z,19.08
2023-08-17T08:45:56.780Z,19.08
2023-08-17T08:47:01.045Z,19.08
2023-08-17T08:48:05.557Z,19.08
2023-08-17T08:49:09.782Z,19.08
2023-08-17T08:50:14.392Z,19.07
2023-08-17T08:51:18.699Z,19.06
2023-08-17T08:52:23.107Z,19.06
2023-08-17T08:53:36.219Z,19.07
2023-08-17T08:54:37.859Z,19.08
2023-08-17T08:55:45.952Z,19.08
2023-08-17T08:56:48.180Z,19.08
2023-08-17T08:57:52.371Z,19.08
2023-08-17T08:58:56.312Z,19.08
2023-08-17T09:00:00.649Z,19.08
2023-08-17T09:01:09.080Z,19.09
2023-08-17T09:02:15.501Z,19.09
2023-08-17T09:03:18.679Z,19.10
2023-08-17T09:04:22.947Z,19.11
2023-08-17T09:05:27.342Z,19.13
2023-08-17T09:06:31.780Z,19.14
2023-08-17T09:07:36.161Z,19.14
2023-08-17T09:08:40.497Z,19.15
2023-08-17T09:09:45.056Z,19.15
2023-08-17T09:10:49.420Z,19.16
2023-08-17T09:11:53.829Z,19.18
2023-08-17T09:12:58.116Z,19.18
2023-08-17T09:14:02.575Z,19.19
2023-08-17T09:15:06.917Z,19.20
2023-08-17T09:16:10.251Z,19.21
2023-08-17T09:17:19.596Z,19.25
2023-08-17T09:18:21.155Z,19.28
2023-08-17T09:19:42.591Z,19.31
2023-08-17T09:20:47.090Z,19.34
2023-08-17T09:21:50.765Z,19.36
2023-08-17T09:22:54.223Z,19.39
2023-08-17T09:23:59.621Z,19.41
2023-08-17T09:25:02.973Z,19.44
2023-08-17T09:26:05.999Z,19.45
2023-08-17T09:27:10.771Z,19.47
2023-08-17T09:28:13.723Z,19.49
2023-08-17T09:29:17.857Z,19.52
2023-08-17T09:30:22.221Z,19.54
2023-08-17T09:31:26.629Z,19.58
2023-08-17T09:32:31.234Z,19.59
2023-08-17T09:33:35.386Z,19.60
2023-08-17T09:34:39.844Z,19.60
2023-08-17T09:35:44.330Z,19.61
2023-08-17T09:36:48.736Z,19.62
2023-08-17T09:37:53.088Z,19.64
2023-08-17T09:38:57.444Z,19.64
2023-08-17T09:40:01.989Z,19.64
2023-08-17T09:41:06.247Z,19.64
2023-08-17T09:42:10.788Z,19.64
2023-08-17T09:43:15.142Z,19.65
2023-08-17T09:44:19.425Z,19.66
2023-08-17T09:45:23.907Z,19.67
2023-08-17T09:46:28.265Z,19.68
2023-08-17T09:47:32.662Z,19.68
2023-08-17T09:48:36.970Z,19.67
2023-08-17T09:49:41.518Z,19.66
2023-08-17T09:50:45.872Z,19.64
2023-08-17T09:51:50.243Z,19.63
2023-08-17T09:52:54.786Z,19.63
2023-08-17T09:54:00.835Z,19.64
2023-08-17T09:56:08.010Z,19.65
2023-08-17T09:57:12.377Z,19.64
2023-08-17T09:58:16.769Z,19.63
2023-08-17T09:59:21.183Z,19.62
2023-08-17T10:00:25.694Z,19.62
2023-08-17T10:01:29.977Z,19.62
2023-08-17T10:02:34.461Z,19.63
2023-08-17T10:03:38.818Z,19.64
2023-08-17T10:04:46.237Z,19.66
2023-08-17T10:05:49.796Z,19.66
2023-08-17T10:06:54.121Z,19.66
2023-08-17T10:07:58.500Z,19.68
2023-08-17T10:09:02.878Z,19.69
2023-08-17T10:10:07.417Z,19.72
2023-08-17T10:11:11.847Z,19.74
2023-08-17T10:12:16.305Z,19.76
2023-08-17T10:13:20.716Z,19.77
2023-08-17T10:14:25.113Z,19.77
2023-08-17T10:15:43.634Z,19.77
2023-08-17T10:16:46.984Z,19.77
2023-08-17T10:17:52.746Z,19.78
2023-08-17T10:18:55.697Z,19.80
2023-08-17T10:20:00.011Z,19.81
2023-08-17T10:21:04.433Z,19.82
2023-08-17T10:22:08.746Z,19.84
2023-08-17T10:24:40.461Z,19.88
2023-08-17T10:25:44.775Z,19.90
2023-08-17T10:26:54.970Z,19.92
2023-08-17T10:27:53.533Z,19.93
2023-08-17T10:28:57.871Z,19.95
2023-08-17T10:30:02.317Z,19.96
2023-08-17T10:32:16.641Z,19.96
2023-08-17T10:33:15.621Z,19.96
2023-08-17T10:34:20.119Z,19.97
2023-08-17T10:35:24.543Z,19.97
2023-08-17T10:36:28.905Z,19.99
2023-08-17T10:37:33.248Z,19.99
2023-08-17T10:38:37.735Z,20.00
2023-08-17T10:39:42.147Z,20.01
2023-08-17T10:40:46.516Z,20.03
2023-08-17T10:41:51.065Z,20.04
2023-08-17T10:42:55.362Z,20.04
2023-08-17T10:43:59.768Z,20.05
2023-08-17T10:45:04.090Z,20.05
2023-08-17T10:46:08.591Z,20.04
2023-08-17T10:47:12.937Z,20.04
2023-08-17T10:48:17.468Z,20.04
2023-08-17T10:49:21.843Z,20.05
2023-08-17T10:50:26.227Z,20.05
2023-08-17T10:51:30.643Z,20.06
2023-08-17T10:52:35.129Z,20.07
2023-08-17T10:53:39.471Z,20.08
2023-08-17T10:54:44.084Z,20.09
2023-08-17T10:55:52.811Z,20.10
2023-08-17T10:56:52.712Z,20.11
2023-08-17T10:57:57.236Z,20.13
2023-08-17T10:59:01.541Z,20.16
2023-08-17T11:00:06.016Z,20.19
2023-08-17T11:01:10.467Z,20.22
2023-08-17T11:02:14.753Z,20.25
2023-08-17T11:03:19.323Z,20.28
2023-08-17T11:04:23.606Z,20.30
2023-08-17T11:05:33.985Z,20.33
2023-08-17T11:06:35.862Z,20.36
2023-08-17T11:07:51.065Z,20.40
2023-08-17T11:09:08.611Z,20.42
2023-08-17T11:10:11.913Z,20.45
2023-08-17T11:11:16.237Z,20.47
2023-08-17T11:12:20.648Z,20.50
2023-08-17T11:13:25.113Z,20.53
2023-08-17T11:14:29.434Z,20.56
2023-08-17T11:15:33.944Z,20.59
2023-08-17T11:16:38.383Z,20.61
2023-08-17T11:17:42.828Z,20.64
2023-08-17T11:18:47.106Z,20.67
2023-08-17T11:19:51.481Z,20.69
2023-08-17T11:20:55.911Z,20.72
2023-08-17T11:22:00.306Z,20.75
2023-08-17T11:23:04.785Z,20.78
2023-08-17T11:24:09.092Z,20.80
2023-08-17T11:25:13.616Z,20.82
2023-08-17T11:26:17.980Z,20.82
2023-08-17T11:27:22.339Z,20.85
2023-08-17T11:28:27.020Z,20.86
2023-08-17T11:29:31.381Z,20.86
2023-08-17T11:30:35.900Z,20.88
2023-08-17T11:31:40.300Z,20.90
2023-08-17T11:32:44.796Z,20.91
2023-08-17T11:33:49.134Z,20.93
2023-08-17T11:34:59.456Z,20.95
2023-08-17T11:36:03.142Z,20.98
2023-08-17T11:37:05.203Z,21.01
2023-08-17T11:38:09.002Z,21.03
2023-08-17T11:39:11.408Z,21.07
2023-08-17T11:40:15.862Z,21.10
2023-08-17T11:41:20.226Z,21.13
2023-08-17T11:42:25.086Z,21.15
2023-08-17T11:43:29.179Z,21.17
2023-08-17T11:44:33.559Z,21.19
2023-08-17T11:45:38.102Z,21.22
2023-08-17T11:46:42.415Z,21.23
2023-08-17T11:47:46.971Z,21.24
2023-08-17T11:48:51.438Z,21.26
2023-08-17T11:50:06.514Z,21.28
2023-08-17T11:51:02.422Z,21.30
2023-08-17T11:52:06.760Z,21.32
2023-08-17T11:53:11.236Z,21.34
2023-08-17T11:54:15.754Z,21.37
2023-08-17T11:55:20.105Z,21.38
2023-08-17T11:56:24.480Z,21.41
2023-08-17T11:57:28.911Z,21.44
2023-08-17T11:58:33.462Z,21.46
2023-08-17T11:59:43.798Z,21.49
2023-08-17T12:00:46.906Z,21.51
2023-08-17T12:01:51.402Z,21.51
2023-08-17T12:02:55.883Z,21.54
2023-08-17T12:04:00.202Z,21.54
2023-08-17T12:05:04.624Z,21.56
2023-08-17T12:06:09.106Z,21.58
2023-08-17T12:07:13.607Z,21.60
2023-08-17T12:08:17.894Z,21.62
2023-08-17T12:09:22.387Z,21.64
2023-08-17T12:10:26.762Z,21.63
2023-08-17T12:12:58.691Z,21.68
2023-08-17T12:14:03.102Z,21.69
2023-08-17T12:15:07.456Z,21.72
2023-08-17T12:16:11.954Z,21.71
2023-08-17T12:17:16.324Z,21.72
2023-08-17T12:18:34.830Z,21.72
2023-08-17T12:19:38.249Z,21.73
2023-08-17T12:20:48.587Z,21.73
2023-08-17T12:21:51.661Z,21.73
2023-08-17T12:22:56.009Z,21.73
2023-08-17T12:24:00.380Z,21.74
2023-08-17T12:25:18.821Z,21.74
2023-08-17T12:26:21.647Z,21.72
2023-08-17T12:27:26.070Z,21.71
2023-08-17T12:28:30.516Z,21.70
2023-08-17T12:29:49.057Z,21.70
2023-08-17T12:30:52.705Z,21.69
2023-08-17T12:31:57.093Z,21.70
2023-08-17T12:33:01.471Z,21.69
2023-08-17T12:34:05.830Z,21.69
2023-08-17T12:35:10.243Z,21.68
2023-08-17T12:36:14.703Z,21.68
2023-08-17T12:37:22.175Z,21.68
2023-08-17T12:38:25.680Z,21.69
2023-08-17T12:39:30.015Z,21.69
2023-08-17T12:40:34.442Z,21.69
2023-08-17T12:41:52.928Z,21.69
2023-08-17T12:42:56.293Z,21.69
2023-08-17T12:44:00.743Z,21.68
2023-08-17T12:45:06.078Z,21.68
2023-08-17T12:46:09.532Z,21.67
2023-08-17T12:47:13.884Z,21.66
2023-08-17T12:48:18.393Z,21.65
2023-08-17T12:49:22.749Z,21.63
2023-08-17T12:50:27.361Z,21.61
2023-08-17T12:51:31.766Z,21.60
2023-08-17T12:52:36.250Z,21.59
2023-08-17T12:53:40.645Z,21.57
2023-08-17T12:54:45.129Z,21.54
2023-08-17T12:55:49.517Z,21.53
2023-08-17T12:56:58.723Z,21.51
2023-08-17T12:58:01.530Z,21.50
2023-08-17T12:59:03.359Z,21.49
2023-08-17T13:00:07.121Z,21.49
2023-08-17T13:01:11.638Z,21.48
2023-08-17T13:02:16.058Z,21.47
2023-08-17T13:03:20.445Z,21.46
2023-08-17T13:04:24.804Z,21.45
2023-08-17T13:05:29.340Z,21.44
2023-08-17T13:06:47.635Z,21.43
2023-08-17T13:07:38.265Z,21.41
2023-08-17T13:08:42.592Z,21.39
2023-08-17T13:09:47.022Z,21.38
2023-08-17T13:10:51.374Z,21.36
2023-08-17T13:11:55.775Z,21.35
2023-08-17T13:13:00.214Z,21.35
2023-08-17T13:14:04.572Z,21.34
2023-08-17T13:15:08.954Z,21.34
2023-08-17T13:16:13.423Z,21.34
2023-08-17T13:17:17.780Z,21.34
2023-08-17T13:18:22.184Z,21.34
2023-08-17T13:19:26.656Z,21.34
2023-08-17T13:20:30.971Z,21.34
2023-08-17T13:21:35.381Z,21.33
2023-08-17T13:22:39.899Z,21.32
2023-08-17T13:23:44.336Z,21.32
2023-08-17T13:24:48.732Z,21.32
2023-08-17T13:25:53.070Z,21.32
2023-08-17T13:26:57.555Z,21.31
2023-08-17T13:28:01.885Z,21.31
2023-08-17T13:29:06.392Z,21.31
2023-08-17T13:30:10.782Z,21.30
2023-08-17T13:31:24.391Z,21.30
2023-08-17T13:32:19.683Z,21.29
2023-08-17T13:33:24.139Z,21.29
2023-08-17T13:34:28.368Z,21.29
2023-08-17T13:35:32.877Z,21.29
2023-08-17T13:36:37.341Z,21.28
2023-08-17T13:37:41.730Z,21.28
2023-08-17T13:38:46.077Z,21.27
2023-08-17T13:39:50.517Z,21.27
2023-08-17T13:40:54.936Z,21.26
2023-08-17T13:41:59.314Z,21.25
2023-08-17T13:43:03.782Z,21.24
2023-08-17T13:44:08.154Z,21.23
2023-08-17T13:45:12.535Z,21.22
2023-08-17T13:46:16.973Z,21.21
2023-08-17T13:47:21.343Z,21.19
2023-08-17T13:48:25.723Z,21.18
2023-08-17T13:49:30.219Z,21.17
2023-08-17T13:50:34.654Z,21.15
2023-08-17T13:51:42.032Z,21.14
2023-08-17T13:52:45.588Z,21.13
2023-08-17T13:53:49.965Z,21.13
2023-08-17T13:54:54.394Z,21.13
2023-08-17T13:55:58.727Z,21.13
2023-08-17T13:57:03.205Z,21.10
2023-08-17T13:58:07.541Z,21.07
2023-08-17T13:59:11.882Z,21.04
2023-08-17T14:00:16.362Z,21.01
2023-08-17T14:01:20.818Z,20.99
2023-08-17T14:02:39.265Z,20.98
2023-08-17T14:03:42.698Z,20.97